Time;durP1;ratioP1;P1;durP2;ratioP2;P2;SDS_P1;SDS_P2;PMS_P1;PMS_P2;Temp;Humidity;BMP_temperature;BMP_pressure;BME280_temperature;BME280_humidity;BME280_pressure;Samples;Min_cycle;Max_cycle;Signal;HPM_P1;HPM_P2
2022/12/27 00:00:20;;;;;;;6.50;3.42;;;;;;;;;;5104176;28;20136;-54
2022/12/27 00:02:46;;;;;;;6.90;2.35;;;;;;;;;;5111323;28;20027;-55
2022/12/27 00:05:12;;;;;;;7.65;3.10;;;;;;;;;;5107432;28;20028;-58
2022/12/27 00:07:37;;;;;;;4.05;2.08;;;;;;;;;;5102080;28;20081;-58
2022/12/27 00:10:05;;;;;;;5.75;1.95;;;;;;;;;;5096295;28;20058;-58
2022/12/27 00:12:30;;;;;;;9.32;2.60;;;;;;;;;;5099768;28;20035;-57
2022/12/27 00:14:55;;;;;;;8.30;2.20;;;;;;;;;;5111373;28;20035;-58
2022/12/27 00:17:21;;;;;;;8.40;2.22;;;;;;;;;;5107779;28;20055;-58
2022/12/27 00:19:46;;;;;;;11.15;2.38;;;;;;;;;;5105511;28;20285;-57
2022/12/27 00:22:12;;;;;;;8.30;2.20;;;;;;;;;;5103377;28;20103;-57
2022/12/27 00:24:37;;;;;;;6.60;2.53;;;;;;;;;;5093395;28;20056;-58
2022/12/27 00:27:03;;;;;;;9.25;2.80;;;;;;;;;;5091387;28;20039;-58
2022/12/27 00:29:28;;;;;;;9.98;2.60;;;;;;;;;;5097681;28;20146;-60
2022/12/27 00:31:53;;;;;;;6.28;2.28;;;;;;;;;;5102243;28;20035;-58
2022/12/27 00:34:19;;;;;;;4.07;1.83;;;;;;;;;;5109290;28;20032;-59
2022/12/27 00:36:44;;;;;;;10.70;2.78;;;;;;;;;;5105860;28;20040;-59
2022/12/27 00:39:10;;;;;;;9.82;3.17;;;;;;;;;;5105764;28;20118;-58
2022/12/27 00:41:35;;;;;;;5.35;2.30;;;;;;;;;;5109885;28;20361;-59
2022/12/27 00:44:01;;;;;;;10.00;2.58;;;;;;;;;;5113375;28;20513;-59
2022/12/27 00:46:26;;;;;;;6.25;2.25;;;;;;;;;;5100090;28;20103;-62
2022/12/27 00:48:52;;;;;;;8.05;2.53;;;;;;;;;;5108497;28;20039;-57
2022/12/27 00:51:21;;;;;;;7.70;2.80;;;;;;;;;;5097437;28;20270;-55
2022/12/27 00:53:47;;;;;;;6.55;2.35;;;;;;;;;;5105983;28;20039;-59
2022/12/27 00:56:35;;;;;;;6.40;2.03;;;;;;;;;;5115839;28;20391;-59
2022/12/27 00:59:03;;;;;;;17.48;2.65;;;;;;;;;;5077772;28;20048;-59
2022/12/27 01:01:31;;;;;;;6.45;2.35;;;;;;;;;;5073121;28;20040;-60
2022/12/27 01:03:57;;;;;;;8.73;2.40;;;;;;;;;;5091665;28;20119;-58
2022/12/27 01:06:25;;;;;;;6.50;2.10;;;;;;;;;;5094795;28;20036;-57
2022/12/27 01:08:50;;;;;;;6.53;2.03;;;;;;;;;;5090659;28;20039;-55
2022/12/27 01:11:17;;;;;;;5.93;2.28;;;;;;;;;;5094825;28;20024;-59
2022/12/27 01:13:43;;;;;;;9.90;2.40;;;;;;;;;;5074880;28;20166;-58
2022/12/27 01:16:15;;;;;;;6.00;2.38;;;;;;;;;;5080457;28;20399;-58
2022/12/27 01:18:41;;;;;;;3.83;2.10;;;;;;;;;;5088055;28;20523;-57
2022/12/27 01:21:08;;;;;;;7.28;2.78;;;;;;;;;;5077856;28;20150;-59
2022/12/27 01:23:34;;;;;;;7.40;2.35;;;;;;;;;;5086944;28;20040;-57
2022/12/27 01:26:01;;;;;;;3.95;2.38;;;;;;;;;;5075264;28;20035;-58
2022/12/27 01:28:27;;;;;;;6.25;2.80;;;;;;;;;;5074381;28;20056;-57
2022/12/27 01:30:52;;;;;;;9.35;3.03;;;;;;;;;;5075062;28;20123;-58
2022/12/27 01:33:18;;;;;;;8.43;2.67;;;;;;;;;;5089003;28;20036;-58
2022/12/27 01:35:43;;;;;;;7.57;2.67;;;;;;;;;;5074347;28;20480;-57
2022/12/27 01:38:09;;;;;;;5.88;2.20;;;;;;;;;;5074143;28;20039;-57
2022/12/27 01:40:35;;;;;;;5.45;2.63;;;;;;;;;;5071839;28;20028;-60
2022/12/27 01:43:01;;;;;;;7.88;2.60;;;;;;;;;;5093437;28;20492;-55
2022/12/27 01:45:28;;;;;;;8.60;2.80;;;;;;;;;;5086357;28;20033;-58
2022/12/27 01:48:03;;;;;;;7.22;3.03;;;;;;;;;;5079995;28;20032;-57
2022/12/27 01:50:36;;;;;;;5.03;2.33;;;;;;;;;;5082165;28;20051;-59
2022/12/27 01:53:11;;;;;;;5.88;2.45;;;;;;;;;;5075419;28;20093;-57
2022/12/27 01:55:49;;;;;;;8.50;3.15;;;;;;;;;;5079748;28;20032;-60
2022/12/27 01:58:31;;;;;;;7.93;2.80;;;;;;;;;;5093215;28;20093;-58
2022/12/27 02:00:57;;;;;;;6.07;2.15;;;;;;;;;;5094159;28;20039;-56
2022/12/27 02:03:29;;;;;;;7.35;2.60;;;;;;;;;;5093894;28;20482;-56
2022/12/27 02:05:56;;;;;;;8.23;2.80;;;;;;;;;;5103369;28;20023;-57
2022/12/27 02:08:35;;;;;;;8.85;2.92;;;;;;;;;;5093974;28;20154;-57
2022/12/27 02:11:02;;;;;;;5.68;2.53;;;;;;;;;;5095033;28;20043;-57
2022/12/27 02:13:30;;;;;;;7.13;2.40;;;;;;;;;;5094419;28;20036;-55
2022/12/27 02:15:56;;;;;;;4.90;2.42;;;;;;;;;;5094013;28;20489;-54
2022/12/27 02:18:21;;;;;;;6.85;2.30;;;;;;;;;;5097612;28;20537;-54
2022/12/27 02:21:14;;;;;;;13.07;3.08;;;;;;;;;;5108856;28;20468;-60
2022/12/27 02:24:02;;;;;;;13.98;3.65;;;;;;;;;;5098841;28;20028;-57
2022/12/27 02:26:44;;;;;;;8.45;2.80;;;;;;;;;;5098499;28;20027;-58
2022/12/27 02:29:19;;;;;;;4.60;1.92;;;;;;;;;;5108329;28;20573;-58
2022/12/27 02:32:02;;;;;;;7.82;2.30;;;;;;;;;;5095264;28;20127;-57
2022/12/27 02:34:39;;;;;;;9.85;3.30;;;;;;;;;;5101407;28;20101;-57
2022/12/27 02:37:09;;;;;;;7.35;2.50;;;;;;;;;;5096990;28;20035;-56
2022/12/27 02:39:40;;;;;;;5.80;2.40;;;;;;;;;;5098795;28;20417;-59
2022/12/27 02:53:34;;;;;;;6.20;3.05;;;;;;;;;;5096101;28;20085;-59
2022/12/27 02:59:17;;;;;;;4.80;2.30;;;;;;;;;;5110086;28;20054;-59
2022/12/27 03:05:03;;;;;;;6.20;2.23;;;;;;;;;;5092498;28;20038;-56
2022/12/27 03:07:34;;;;;;;9.13;2.63;;;;;;;;;;5076435;28;20316;-57
2022/12/27 03:16:31;;;;;;;4.40;2.30;;;;;;;;;;5092308;28;20123;-55
2022/12/27 03:19:11;;;;;;;16.80;2.97;;;;;;;;;;5096740;28;20264;-57
2022/12/27 03:27:27;;;;;;;10.85;3.00;;;;;;;;;;5097695;28;20067;-55
2022/12/27 03:33:32;;;;;;;6.30;2.50;;;;;;;;;;5111236;28;20047;-60
2022/12/27 03:38:01;;;;;;;6.18;2.35;;;;;;;;;;5095622;28;20046;-58
2022/12/27 03:38:35;;;;;;;3.40;1.77;;;;;;;;;;5109942;28;20084;-59
2022/12/27 03:43:50;;;;;;;5.60;2.17;;;;;;;;;;5101271;28;20388;-59
2022/12/27 03:46:35;;;;;;;10.85;2.92;;;;;;;;;;5092002;28;20031;-55
2022/12/27 03:49:19;;;;;;;7.13;2.47;;;;;;;;;;5100410;28;20054;-57
2022/12/27 03:51:53;;;;;;;10.32;4.00;;;;;;;;;;5101874;28;20038;-57
2022/12/27 03:54:25;;;;;;;7.13;2.67;;;;;;;;;;5099613;28;20035;-57
2022/12/27 03:57:00;;;;;;;8.57;3.13;;;;;;;;;;5090980;28;20024;-53
2022/12/27 03:59:26;;;;;;;11.55;3.45;;;;;;;;;;5093828;28;20401;-54
2022/12/27 04:01:52;;;;;;;7.80;3.10;;;;;;;;;;5090472;28;20030;-54
2022/12/27 04:04:17;;;;;;;12.13;3.33;;;;;;;;;;5107381;28;20088;-56
2022/12/27 04:06:43;;;;;;;9.77;3.35;;;;;;;;;;5092681;28;20036;-59
2022/12/27 04:36:29;;;;;;;8.75;2.67;;;;;;;;;;5106567;28;20150;-57
2022/12/27 04:38:54;;;;;;;8.30;2.33;;;;;;;;;;5105527;28;20209;-58
2022/12/27 04:55:14;;;;;;;9.18;2.70;;;;;;;;;;5095777;28;20045;-58
2022/12/27 04:57:39;;;;;;;11.07;2.60;;;;;;;;;;5102059;28;20484;-57
2022/12/27 05:02:50;;;;;;;6.03;2.05;;;;;;;;;;5110776;28;20135;-57
2022/12/27 05:05:15;;;;;;;6.68;2.40;;;;;;;;;;5076283;28;20512;-57
2022/12/27 05:15:55;;;;;;;5.90;2.40;;;;;;;;;;5109608;28;20120;-58
2022/12/27 05:18:21;;;;;;;6.80;2.58;;;;;;;;;;5083899;28;20058;-57
2022/12/27 05:20:46;;;;;;;7.82;2.33;;;;;;;;;;5090155;28;20054;-61
2022/12/27 05:25:55;;;;;;;7.15;2.40;;;;;;;;;;5098093;28;20088;-57
2022/12/27 05:28:21;;;;;;;4.22;1.98;;;;;;;;;;5099890;28;20028;-57
2022/12/27 05:30:46;;;;;;;12.27;3.28;;;;;;;;;;5095115;28;20376;-60
2022/12/27 05:33:11;;;;;;;9.75;2.88;;;;;;;;;;5113006;28;20024;-56
2022/12/27 05:35:37;;;;;;;6.43;2.38;;;;;;;;;;5110005;28;20380;-57
2022/12/27 05:38:03;;;;;;;9.55;3.25;;;;;;;;;;5101193;28;20032;-58
2022/12/27 05:40:28;;;;;;;8.60;2.40;;;;;;;;;;5112946;28;20084;-57
2022/12/27 05:42:57;;;;;;;7.70;2.63;;;;;;;;;;5100970;28;20039;-57
2022/12/27 05:45:23;;;;;;;8.27;2.90;;;;;;;;;;5101523;28;20032;-57
2022/12/27 05:47:48;;;;;;;3.17;1.88;;;;;;;;;;5094340;28;20028;-61
2022/12/27 05:50:13;;;;;;;7.25;2.72;;;;;;;;;;5108628;28;20097;-58
2022/12/27 05:52:39;;;;;;;10.68;3.05;;;;;;;;;;5076720;28;20042;-58
2022/12/27 05:55:06;;;;;;;11.15;2.75;;;;;;;;;;5107079;28;20296;-58
2022/12/27 05:57:32;;;;;;;17.80;4.18;;;;;;;;;;5095528;28;20048;-55
2022/12/27 05:59:58;;;;;;;10.57;3.47;;;;;;;;;;5094496;28;20077;-58
2022/12/27 06:02:23;;;;;;;13.38;3.72;;;;;;;;;;5105848;28;20027;-58
2022/12/27 06:04:48;;;;;;;7.10;2.63;;;;;;;;;;5112197;28;20110;-61
2022/12/27 06:07:14;;;;;;;9.18;2.88;;;;;;;;;;5078104;28;20032;-58
2022/12/27 06:09:41;;;;;;;7.18;2.83;;;;;;;;;;5094449;28;20460;-57
2022/12/27 06:12:06;;;;;;;10.02;3.13;;;;;;;;;;5112025;28;20084;-59
2022/12/27 06:14:32;;;;;;;9.07;2.92;;;;;;;;;;5100795;28;20020;-57
2022/12/27 06:16:57;;;;;;;6.22;3.10;;;;;;;;;;5108579;28;20036;-57
2022/12/27 06:19:22;;;;;;;10.70;3.80;;;;;;;;;;5094252;28;20063;-58
2022/12/27 06:21:48;;;;;;;7.82;3.20;;;;;;;;;;5105121;28;20039;-60
2022/12/27 06:24:14;;;;;;;15.60;5.38;;;;;;;;;;5097866;28;20156;-56
2022/12/27 06:26:41;;;;;;;9.88;4.43;;;;;;;;;;5111657;28;20081;-58
2022/12/27 06:29:06;;;;;;;12.07;4.47;;;;;;;;;;5108205;28;20055;-58
2022/12/27 06:31:31;;;;;;;10.45;4.22;;;;;;;;;;5109381;28;20101;-58
2022/12/27 06:33:57;;;;;;;8.77;4.40;;;;;;;;;;5097887;28;20115;-57
2022/12/27 06:36:26;;;;;;;8.77;4.20;;;;;;;;;;5106127;28;20047;-57
2022/12/27 06:38:51;;;;;;;17.77;4.55;;;;;;;;;;5084938;28;20168;-60
2022/12/27 06:41:17;;;;;;;8.20;3.70;;;;;;;;;;5106183;28;20063;-58
2022/12/27 06:43:43;;;;;;;7.63;3.25;;;;;;;;;;5095758;28;20044;-56
2022/12/27 06:46:11;;;;;;;9.75;3.75;;;;;;;;;;5105261;28;20039;-55
2022/12/27 06:48:36;;;;;;;10.73;3.95;;;;;;;;;;5085370;28;20020;-54
2022/12/27 06:51:07;;;;;;;9.05;3.63;;;;;;;;;;5092640;28;20115;-56
2022/12/27 06:53:32;;;;;;;10.63;3.92;;;;;;;;;;5112856;28;20035;-57
2022/12/27 06:56:05;;;;;;;5.07;2.58;;;;;;;;;;5100326;28;20024;-55
2022/12/27 06:58:31;;;;;;;8.55;3.20;;;;;;;;;;5109328;28;20399;-56
2022/12/27 07:00:56;;;;;;;11.63;4.10;;;;;;;;;;5112121;28;20103;-57
2022/12/27 07:03:21;;;;;;;6.05;2.72;;;;;;;;;;5112619;28;20040;-54
2022/12/27 07:05:47;;;;;;;8.52;3.40;;;;;;;;;;5112157;28;20027;-59
2022/12/27 07:08:12;;;;;;;9.35;3.40;;;;;;;;;;5110495;28;20035;-55
2022/12/27 07:10:38;;;;;;;6.53;2.80;;;;;;;;;;5112947;28;20027;-57
2022/12/27 07:13:03;;;;;;;8.15;3.63;;;;;;;;;;5099110;28;20043;-57
2022/12/27 07:15:28;;;;;;;9.13;3.15;;;;;;;;;;5092881;28;20028;-58
2022/12/27 07:17:54;;;;;;;10.60;3.40;;;;;;;;;;5109221;28;20493;-59
2022/12/27 07:20:19;;;;;;;5.15;2.38;;;;;;;;;;5112709;28;20050;-55
2022/12/27 07:22:45;;;;;;;10.65;3.60;;;;;;;;;;5111695;28;20388;-57
2022/12/27 07:25:10;;;;;;;14.32;4.28;;;;;;;;;;5111878;28;20168;-58
2022/12/27 07:27:36;;;;;;;8.05;3.53;;;;;;;;;;5112047;28;20023;-54
2022/12/27 07:30:03;;;;;;;10.13;4.32;;;;;;;;;;5081449;28;20465;-57
2022/12/27 07:32:28;;;;;;;10.77;3.97;;;;;;;;;;5093031;28;20073;-55
2022/12/27 07:34:54;;;;;;;9.70;3.97;;;;;;;;;;5092159;28;20043;-59
2022/12/27 07:37:19;;;;;;;10.68;3.92;;;;;;;;;;5112286;28;20029;-57
2022/12/27 07:39:45;;;;;;;10.15;3.60;;;;;;;;;;5112581;28;20091;-54
2022/12/27 07:42:11;;;;;;;12.48;4.30;;;;;;;;;;5108379;28;20031;-56
2022/12/27 07:44:37;;;;;;;13.77;3.75;;;;;;;;;;5091586;28;20066;-54
2022/12/27 07:47:03;;;;;;;14.25;3.70;;;;;;;;;;5096626;28;20036;-54
2022/12/27 07:49:28;;;;;;;12.68;4.03;;;;;;;;;;5111034;28;20038;-57
2022/12/27 07:51:53;;;;;;;9.55;3.22;;;;;;;;;;5111619;28;20103;-58
2022/12/27 07:54:19;;;;;;;6.93;3.50;;;;;;;;;;5110024;28;20111;-56
2022/12/27 07:56:44;;;;;;;6.97;2.65;;;;;;;;;;5100340;28;20098;-57
2022/12/27 07:59:11;;;;;;;9.50;2.72;;;;;;;;;;5089153;28;20039;-57
2022/12/27 08:04:21;;;;;;;9.88;2.70;;;;;;;;;;5092240;28;20384;-56
2022/12/27 08:06:47;;;;;;;5.85;3.17;;;;;;;;;;5100234;28;20457;-57
2022/12/27 08:09:15;;;;;;;7.32;3.00;;;;;;;;;;5111332;28;20052;-52
2022/12/27 08:11:40;;;;;;;8.25;3.40;;;;;;;;;;5109737;28;20031;-55
2022/12/27 08:14:05;;;;;;;12.55;4.55;;;;;;;;;;5108579;28;20108;-54
2022/12/27 08:16:31;;;;;;;11.70;4.82;;;;;;;;;;5095756;28;20035;-55
2022/12/27 08:18:56;;;;;;;8.27;3.55;;;;;;;;;;5075422;28;20107;-59
2022/12/27 08:21:22;;;;;;;11.70;5.68;;;;;;;;;;5111312;28;20525;-54
2022/12/27 08:23:48;;;;;;;14.75;4.95;;;;;;;;;;5110296;28;20032;-52
2022/12/27 08:26:13;;;;;;;13.20;3.97;;;;;;;;;;5105788;28;20054;-53
2022/12/27 08:28:39;;;;;;;8.90;3.72;;;;;;;;;;5111026;28;20066;-55
2022/12/27 08:31:07;;;;;;;8.63;3.55;;;;;;;;;;5110566;28;20400;-56
2022/12/27 08:33:32;;;;;;;13.55;4.85;;;;;;;;;;5109711;28;20031;-57
2022/12/27 08:36:03;;;;;;;10.02;3.97;;;;;;;;;;5110202;28;20027;-60
2022/12/27 08:38:29;;;;;;;14.05;5.07;;;;;;;;;;5111108;28;20024;-55
2022/12/27 08:40:54;;;;;;;9.35;4.00;;;;;;;;;;5111464;28;20043;-56
2022/12/27 08:43:19;;;;;;;11.43;3.95;;;;;;;;;;5108983;28;20093;-56
2022/12/27 08:45:45;;;;;;;10.95;4.60;;;;;;;;;;5111969;28;20023;-56
2022/12/27 08:48:10;;;;;;;11.80;4.80;;;;;;;;;;5110260;28;20027;-55
2022/12/27 08:50:36;;;;;;;15.73;3.42;;;;;;;;;;5095229;28;20059;-54
2022/12/27 08:53:03;;;;;;;10.45;4.20;;;;;;;;;;5090295;28;20063;-54
2022/12/27 08:55:29;;;;;;;5.65;2.67;;;;;;;;;;5090842;28;20040;-54
2022/12/27 08:58:04;;;;;;;10.25;3.67;;;;;;;;;;5107032;28;20044;-53
2022/12/27 09:00:31;;;;;;;6.30;3.35;;;;;;;;;;5112624;28;20035;-57
2022/12/27 09:02:57;;;;;;;10.43;3.80;;;;;;;;;;5084313;28;20444;-59
2022/12/27 09:05:23;;;;;;;8.90;4.00;;;;;;;;;;5113987;28;20028;-56
2022/12/27 09:07:49;;;;;;;13.65;4.63;;;;;;;;;;5115150;28;20073;-56
2022/12/27 09:10:14;;;;;;;10.55;3.97;;;;;;;;;;5108452;28;20384;-56
2022/12/27 09:12:40;;;;;;;8.95;3.47;;;;;;;;;;5094722;28;20028;-57
2022/12/27 09:15:07;;;;;;;10.52;3.45;;;;;;;;;;5099389;28;20032;-55
2022/12/27 09:17:33;;;;;;;7.18;3.42;;;;;;;;;;5114639;28;20051;-56
2022/12/27 09:19:58;;;;;;;9.43;3.83;;;;;;;;;;5113653;28;20065;-59
2022/12/27 09:22:24;;;;;;;7.18;2.65;;;;;;;;;;5094994;28;20039;-51
2022/12/27 09:24:49;;;;;;;9.55;3.30;;;;;;;;;;5095754;28;20129;-53
2022/12/27 09:27:14;;;;;;;9.05;3.25;;;;;;;;;;5113646;28;20034;-52
2022/12/27 09:29:40;;;;;;;11.35;4.22;;;;;;;;;;5114437;28;20421;-52
2022/12/27 09:32:05;;;;;;;13.75;5.38;;;;;;;;;;5113347;28;20119;-56
2022/12/27 09:34:30;;;;;;;10.27;4.40;;;;;;;;;;5096857;28;20032;-56
2022/12/27 09:36:56;;;;;;;8.30;3.05;;;;;;;;;;5095347;28;20518;-56
2022/12/27 09:39:21;;;;;;;8.88;3.42;;;;;;;;;;5093618;28;20214;-54
2022/12/27 09:42:00;;;;;;;10.90;4.13;;;;;;;;;;5111917;28;20028;-56
2022/12/27 09:44:33;;;;;;;8.15;3.55;;;;;;;;;;5102479;28;20111;-55
2022/12/27 09:47:07;;;;;;;14.50;4.32;;;;;;;;;;5095227;28;20040;-55
2022/12/27 09:49:42;;;;;;;12.02;5.00;;;;;;;;;;5114281;28;20031;-52
2022/12/27 09:52:13;;;;;;;11.25;3.45;;;;;;;;;;5112914;28;20030;-58
2022/12/27 09:54:41;;;;;;;11.02;4.15;;;;;;;;;;5096960;28;20114;-57
2022/12/27 09:57:21;;;;;;;10.50;4.00;;;;;;;;;;5108286;28;20055;-56
2022/12/27 09:59:51;;;;;;;10.93;4.97;;;;;;;;;;5111157;28;20045;-57
2022/12/27 10:02:22;;;;;;;11.70;4.68;;;;;;;;;;5097458;28;20313;-54
2022/12/27 10:04:48;;;;;;;;;;;;;;;;;;5113728;28;20087;-56
2022/12/27 10:07:34;;;;;;;9.50;3.88;;;;;;;;;;5113678;28;20316;-55
2022/12/27 10:10:21;;;;;;;9.48;4.50;;;;;;;;;;5112961;28;20047;-60
2022/12/27 10:13:01;;;;;;;7.93;3.38;;;;;;;;;;5113489;28;20032;-57
2022/12/27 10:15:49;;;;;;;8.20;2.50;;;;;;;;;;5093240;28;20024;-59
2022/12/27 10:18:36;;;;;;;8.35;3.83;;;;;;;;;;5098370;28;20058;-56
2022/12/27 10:21:21;;;;;;;10.98;3.58;;;;;;;;;;5112323;28;20043;-59
2022/12/27 10:24:01;;;;;;;10.50;4.18;;;;;;;;;;5111301;28;20035;-57
2022/12/27 10:26:27;;;;;;;7.60;3.35;;;;;;;;;;5093243;28;20080;-58
2022/12/27 10:29:00;;;;;;;7.55;3.13;;;;;;;;;;5097826;28;20036;-57
2022/12/27 10:31:26;;;;;;;10.35;3.63;;;;;;;;;;5108570;28;20035;-54
2022/12/27 10:33:53;;;;;;;7.90;3.45;;;;;;;;;;5076906;28;20031;-58
2022/12/27 10:36:24;;;;;;;11.73;3.75;;;;;;;;;;5112284;28;20484;-56
2022/12/27 10:38:50;;;;;;;7.15;2.90;;;;;;;;;;5114098;28;20028;-53
2022/12/27 10:41:48;;;;;;;11.25;4.03;;;;;;;;;;5111113;28;20525;-54
2022/12/27 10:44:14;;;;;;;14.65;4.18;;;;;;;;;;5093380;28;20047;-59
2022/12/27 10:46:43;;;;;;;6.18;3.00;;;;;;;;;;5113312;28;20118;-53
2022/12/27 10:49:26;;;;;;;9.20;3.80;;;;;;;;;;5097802;28;20036;-59
2022/12/27 10:51:56;;;;;;;13.27;4.32;;;;;;;;;;5096076;28;20119;-54
2022/12/27 10:54:27;;;;;;;8.10;3.60;;;;;;;;;;5096615;28;20043;-56
2022/12/27 10:56:54;;;;;;;12.88;3.67;;;;;;;;;;5108301;28;20034;-55
2022/12/27 10:59:24;;;;;;;10.95;3.10;;;;;;;;;;5094173;28;20481;-53
2022/12/27 11:01:58;;;;;;;8.48;2.88;;;;;;;;;;5113452;28;20031;-55
2022/12/27 11:04:24;;;;;;;6.82;2.72;;;;;;;;;;5088920;28;20506;-55
2022/12/27 11:07:12;;;;;;;7.97;2.75;;;;;;;;;;5076110;28;20464;-55
2022/12/27 11:09:41;;;;;;;7.07;2.90;;;;;;;;;;5097912;28;20096;-54
2022/12/27 11:12:24;;;;;;;10.25;3.70;;;;;;;;;;5112380;28;20032;-58
2022/12/27 11:15:10;;;;;;;9.48;3.10;;;;;;;;;;5103935;28;20078;-53
2022/12/27 11:17:41;;;;;;;7.80;2.78;;;;;;;;;;5086664;28;20035;-53
2022/12/27 11:20:11;;;;;;;11.60;3.17;;;;;;;;;;5111069;28;20039;-58
2022/12/27 11:22:52;;;;;;;8.55;2.90;;;;;;;;;;5112888;28;20406;-55
2022/12/27 11:25:19;;;;;;;8.38;2.85;;;;;;;;;;5110791;28;20096;-52
2022/12/27 11:27:52;;;;;;;6.68;2.80;;;;;;;;;;5102243;28;20088;-57
2022/12/27 11:30:40;;;;;;;9.57;3.00;;;;;;;;;;5100095;28;20081;-56
2022/12/27 11:33:18;;;;;;;6.30;2.70;;;;;;;;;;5092564;28;20051;-58
2022/12/27 11:35:50;;;;;;;9.65;2.88;;;;;;;;;;5100310;28;20076;-55
2022/12/27 11:38:26;;;;;;;9.05;3.45;;;;;;;;;;5111956;28;20051;-55
2022/12/27 11:40:59;;;;;;;10.32;3.50;;;;;;;;;;5110980;28;20027;-57
2022/12/27 11:43:26;;;;;;;5.75;2.63;;;;;;;;;;5092142;28;20356;-54
2022/12/27 11:45:54;;;;;;;11.27;2.75;;;;;;;;;;5083487;28;20429;-56
2022/12/27 11:48:26;;;;;;;9.02;3.83;;;;;;;;;;5110963;28;20055;-57
2022/12/27 11:51:11;;;;;;;9.27;2.97;;;;;;;;;;5105811;28;20073;-57
2022/12/27 11:54:03;;;;;;;11.88;3.10;;;;;;;;;;5091648;28;20020;-53
2022/12/27 11:56:31;;;;;;;11.80;3.40;;;;;;;;;;5094215;28;20028;-55
2022/12/27 11:59:30;;;;;;;7.95;3.22;;;;;;;;;;5100391;28;20495;-55
2022/12/27 12:02:17;;;;;;;8.07;2.67;;;;;;;;;;5112514;28;20085;-55
2022/12/27 12:05:09;;;;;;;9.55;3.03;;;;;;;;;;5109913;28;20031;-59
2022/12/27 12:07:34;;;;;;;9.98;2.92;;;;;;;;;;5089400;28;20439;-56
2022/12/27 12:10:18;;;;;;;5.05;2.15;;;;;;;;;;5108500;28;20040;-56
2022/12/27 12:12:55;;;;;;;6.35;2.10;;;;;;;;;;5111902;28;20028;-55
2022/12/27 12:15:32;;;;;;;5.18;2.15;;;;;;;;;;5089581;28;20050;-54
2022/12/27 12:18:07;;;;;;;7.88;3.28;;;;;;;;;;5111359;28;20081;-55
2022/12/27 12:20:42;;;;;;;6.68;2.35;;;;;;;;;;5093427;28;20046;-55
2022/12/27 12:23:52;;;;;;;6.10;2.90;;;;;;;;;;5109215;28;20463;-58
2022/12/27 12:26:22;;;;;;;5.70;2.83;;;;;;;;;;5008562;28;20046;-52
2022/12/27 12:29:18;;;;;;;5.57;2.27;;;;;;;;;;5085651;28;20040;-59
2022/12/27 12:31:50;;;;;;;12.52;3.22;;;;;;;;;;5083579;28;20091;-59
2022/12/27 12:34:44;;;;;;;8.65;2.55;;;;;;;;;;5106583;28;20488;-57
2022/12/27 12:37:40;;;;;;;7.75;2.90;;;;;;;;;;5114902;28;20468;-59
2022/12/27 12:40:42;;;;;;;6.80;2.10;;;;;;;;;;5114083;28;20038;-58
2022/12/27 12:43:42;;;;;;;9.88;2.45;;;;;;;;;;5115935;28;20038;-60
2022/12/27 12:46:25;;;;;;;6.22;2.08;;;;;;;;;;5095914;28;20024;-56
2022/12/27 12:49:24;;;;;;;6.22;2.42;;;;;;;;;;5097541;28;20088;-55
2022/12/27 12:51:57;;;;;;;9.13;2.78;;;;;;;;;;5111330;28;20039;-56
2022/12/27 12:54:29;;;;;;;8.30;2.45;;;;;;;;;;5093696;28;20032;-57
2022/12/27 12:57:49;;;;;;;5.40;2.20;;;;;;;;;;5106974;28;20043;-55
2022/12/27 13:00:54;;;;;;;10.73;3.15;;;;;;;;;;5006216;28;20461;-56
2022/12/27 13:03:38;;;;;;;7.88;3.05;;;;;;;;;;5077665;28;20069;-57
2022/12/27 13:06:51;;;;;;;8.32;3.95;;;;;;;;;;5095158;28;20058;-56
2022/12/27 13:09:51;;;;;;;5.70;2.35;;;;;;;;;;5094018;28;20036;-57
2022/12/27 13:12:31;;;;;;;8.48;2.13;;;;;;;;;;5101017;28;20019;-53
2022/12/27 13:15:12;;;;;;;6.68;1.88;;;;;;;;;;5110168;28;20037;-52
2022/12/27 13:18:29;;;;;;;11.27;2.43;;;;;;;;;;5095505;28;20400;-55
2022/12/27 13:21:08;;;;;;;11.90;2.85;;;;;;;;;;5057504;28;20050;-56
2022/12/27 13:23:40;;;;;;;5.75;1.80;;;;;;;;;;5093691;28;20032;-57
2022/12/27 13:26:18;;;;;;;8.57;2.35;;;;;;;;;;5108825;28;20038;-56
2022/12/27 13:29:06;;;;;;;6.28;1.60;;;;;;;;;;5115268;28;20028;-56
2022/12/27 13:31:55;;;;;;;6.22;2.45;;;;;;;;;;5080766;28;20036;-56
2022/12/27 13:34:30;;;;;;;4.43;1.90;;;;;;;;;;5105148;28;20028;-53
2022/12/27 13:37:14;;;;;;;7.68;2.40;;;;;;;;;;5103970;28;20095;-53
2022/12/27 13:39:58;;;;;;;7.50;2.50;;;;;;;;;;5113308;28;20038;-56
2022/12/27 13:42:46;;;;;;;7.78;2.10;;;;;;;;;;5112908;28;20028;-55
2022/12/27 13:45:24;;;;;;;11.95;2.55;;;;;;;;;;5114232;28;20054;-60
2022/12/27 13:48:01;;;;;;;9.63;2.80;;;;;;;;;;5114411;28;20426;-52
2022/12/27 13:50:49;;;;;;;5.68;2.28;;;;;;;;;;5112874;28;20039;-57
2022/12/27 13:53:21;;;;;;;5.28;2.70;;;;;;;;;;5099088;28;20039;-59
2022/12/27 13:56:12;;;;;;;9.30;2.90;;;;;;;;;;5112293;28;20031;-52
2022/12/27 13:59:02;;;;;;;6.38;1.95;;;;;;;;;;5111399;28;20043;-52
2022/12/27 14:01:35;;;;;;;9.70;2.53;;;;;;;;;;5113228;28;20428;-54
2022/12/27 14:04:40;;;;;;;4.20;2.00;;;;;;;;;;5113806;28;20035;-56
2022/12/27 14:07:35;;;;;;;6.35;2.47;;;;;;;;;;5112138;28;20398;-56
2022/12/27 14:10:05;;;;;;;6.35;2.20;;;;;;;;;;5114490;28;20130;-55
2022/12/27 14:12:57;;;;;;;6.28;2.45;;;;;;;;;;5102007;28;20039;-56
2022/12/27 14:15:51;;;;;;;6.40;2.50;;;;;;;;;;5106623;28;20044;-57
2022/12/27 14:19:03;;;;;;;5.55;2.75;;;;;;;;;;5071271;28;20050;-61
2022/12/27 14:21:32;;;;;;;4.53;2.45;;;;;;;;;;5039416;28;20043;-57
2022/12/27 14:24:16;;;;;;;7.07;2.88;;;;;;;;;;5093161;28;20044;-57
2022/12/27 14:27:00;;;;;;;8.82;3.00;;;;;;;;;;5112152;28;20063;-53
2022/12/27 14:29:47;;;;;;;6.55;2.50;;;;;;;;;;5113159;28;20027;-55
2022/12/27 14:32:40;;;;;;;8.40;2.80;;;;;;;;;;5113923;28;20059;-55
2022/12/27 14:35:27;;;;;;;7.28;2.95;;;;;;;;;;5113869;28;20034;-57
2022/12/27 14:38:11;;;;;;;6.50;2.38;;;;;;;;;;5093530;28;20093;-54
2022/12/27 14:41:08;;;;;;;9.15;2.85;;;;;;;;;;5083040;28;20558;-54
2022/12/27 14:43:47;;;;;;;7.97;2.63;;;;;;;;;;5090447;28;20028;-57
2022/12/27 14:46:31;;;;;;;6.25;2.42;;;;;;;;;;5113749;28;20039;-59
2022/12/27 14:49:33;;;;;;;8.63;2.47;;;;;;;;;;5111996;28;20489;-57
2022/12/27 14:52:17;;;;;;;8.98;3.22;;;;;;;;;;5112216;28;20189;-60
2022/12/27 14:54:59;;;;;;;10.48;3.42;;;;;;;;;;5103274;28;20345;-59
2022/12/27 14:57:33;;;;;;;8.18;2.78;;;;;;;;;;5094902;28;20137;-59
2022/12/27 15:00:19;;;;;;;7.80;2.85;;;;;;;;;;5074818;28;20035;-60
2022/12/27 15:02:55;;;;;;;9.90;3.42;;;;;;;;;;5111165;28;20028;-60
2022/12/27 15:05:20;;;;;;;6.97;2.90;;;;;;;;;;5057214;28;20036;-60
2022/12/27 15:08:23;;;;;;;7.32;2.55;;;;;;;;;;5087851;28;20031;-56
2022/12/27 15:10:59;;;;;;;10.13;3.20;;;;;;;;;;5093867;28;20027;-54
2022/12/27 15:13:51;;;;;;;6.20;2.60;;;;;;;;;;5093350;28;20418;-56
2022/12/27 15:16:28;;;;;;;5.90;2.60;;;;;;;;;;5097241;28;20028;-58
2022/12/27 15:19:27;;;;;;;7.90;2.33;;;;;;;;;;5113079;28;20027;-56
2022/12/27 15:22:09;;;;;;;8.10;2.60;;;;;;;;;;5092295;28;20035;-56
2022/12/27 15:25:13;;;;;;;6.80;2.70;;;;;;;;;;5093433;28;20039;-57
2022/12/27 15:28:08;;;;;;;8.60;2.42;;;;;;;;;;5088979;28;20142;-56
2022/12/27 15:31:06;;;;;;;8.23;2.35;;;;;;;;;;5104443;28;20039;-56
2022/12/27 15:34:17;;;;;;;6.82;2.40;;;;;;;;;;5086540;28;20377;-58
2022/12/27 15:36:48;;;;;;;10.52;4.22;;;;;;;;;;5084244;28;20058;-57
2022/12/27 15:39:48;;;;;;;10.73;4.00;;;;;;;;;;5109656;28;20035;-58
2022/12/27 15:42:36;;;;;;;10.20;3.20;;;;;;;;;;5010195;28;20022;-56
2022/12/27 15:45:24;;;;;;;13.52;3.10;;;;;;;;;;5086281;28;20123;-54
2022/12/27 15:48:11;;;;;;;11.30;3.50;;;;;;;;;;5078604;28;20103;-57
2022/12/27 15:50:45;;;;;;;10.13;3.30;;;;;;;;;;5111684;28;20035;-55
2022/12/27 15:53:32;;;;;;;9.07;3.22;;;;;;;;;;5109337;28;20512;-56
2022/12/27 15:56:15;;;;;;;11.35;3.28;;;;;;;;;;5112328;28;20451;-56
2022/12/27 15:58:41;;;;;;;14.27;3.28;;;;;;;;;;5099337;28;20365;-52
2022/12/27 16:01:15;;;;;;;12.18;4.65;;;;;;;;;;5091555;28;20459;-58
2022/12/27 16:03:43;;;;;;;12.10;3.47;;;;;;;;;;5101663;28;20161;-55
2022/12/27 16:06:34;;;;;;;17.00;5.18;;;;;;;;;;5111445;28;20030;-57
2022/12/27 16:09:18;;;;;;;;;;;;;;;;;;5111783;28;20387;-56
2022/12/27 16:12:00;;;;;;;14.68;4.93;;;;;;;;;;5110331;28;20391;-53
2022/12/27 16:14:30;;;;;;;11.05;3.70;;;;;;;;;;5072807;28;20067;-52
2022/12/27 16:17:05;;;;;;;16.27;4.80;;;;;;;;;;5098383;28;20058;-54
2022/12/27 16:19:55;;;;;;;7.65;2.38;;;;;;;;;;5107579;28;20082;-58
2022/12/27 16:22:42;;;;;;;12.65;4.03;;;;;;;;;;5092575;28;20394;-59
2022/12/27 16:25:38;;;;;;;11.38;4.20;;;;;;;;;;5111309;28;20051;-55
2022/12/27 16:28:27;;;;;;;9.88;3.28;;;;;;;;;;5090930;28;20040;-53
2022/12/27 16:30:54;;;;;;;8.77;2.50;;;;;;;;;;5101351;28;20032;-53
2022/12/27 16:33:25;;;;;;;7.10;2.30;;;;;;;;;;5094757;28;20031;-56
2022/12/27 16:36:19;;;;;;;9.57;2.65;;;;;;;;;;5106067;28;20061;-54
2022/12/27 16:38:45;;;;;;;7.45;2.30;;;;;;;;;;5111028;28;20024;-53
2022/12/27 16:41:13;;;;;;;7.30;2.35;;;;;;;;;;5093755;28;20111;-54
2022/12/27 16:44:01;;;;;;;5.10;1.92;;;;;;;;;;5109179;28;20381;-52
2022/12/27 16:46:30;;;;;;;5.18;2.45;;;;;;;;;;5095097;28;20567;-56
2022/12/27 16:49:23;;;;;;;6.45;2.38;;;;;;;;;;5091613;28;20034;-56
2022/12/27 16:52:01;;;;;;;11.52;3.13;;;;;;;;;;5109719;28;20040;-57
2022/12/27 16:54:44;;;;;;;10.13;3.28;;;;;;;;;;5110068;28;20055;-60